Time;durP1;ratioP1;P1;durP2;ratioP2;P2;SDS_P1;SDS_P2;PMS_P1;PMS_P2;Temp;Humidity;BMP_temperature;BMP_pressure;BME280_temperature;BME280_humidity;BME280_pressure;Samples;Min_cycle;Max_cycle;Signal;HPM_P1;HPM_P2
2024/01/11 00:00:41;;;;;;;23.73;22.00;;;;;;;-9.48;100.00;102513.50;5034830;28;20517;-62
2024/01/11 00:03:11;;;;;;;21.90;20.77;;;;;;;-9.51;100.00;102512.72;5043696;28;20057;-62
2024/01/11 00:05:39;;;;;;;21.60;20.40;;;;;;;-9.38;100.00;102513.28;5047811;28;20067;-62
2024/01/11 00:08:06;;;;;;;21.13;19.83;;;;;;;-9.50;100.00;102512.69;5041251;28;20057;-57
2024/01/11 00:10:33;;;;;;;26.50;24.80;;;;;;;-9.66;100.00;102515.63;5045666;28;20044;-62
2024/01/11 00:13:00;;;;;;;24.35;23.05;;;;;;;-9.54;100.00;102508.47;5048122;28;20445;-62
2024/01/11 00:15:28;;;;;;;24.58;23.17;;;;;;;-9.83;100.00;102514.25;5048040;28;20064;-62
2024/01/11 00:17:55;;;;;;;25.13;23.63;;;;;;;-9.75;100.00;102514.06;5040779;28;20045;-62
2024/01/11 00:20:23;;;;;;;24.48;23.17;;;;;;;-9.98;100.00;102514.56;5047285;28;20507;-56
2024/01/11 00:22:50;;;;;;;26.85;25.27;;;;;;;-9.79;100.00;102503.00;5042210;28;20048;-62
2024/01/11 00:25:18;;;;;;;27.70;25.92;;;;;;;-9.65;100.00;102505.31;5048084;28;20060;-62
2024/01/11 00:27:45;;;;;;;22.38;20.95;;;;;;;-9.41;100.00;102498.75;5042867;28;20726;-57
2024/01/11 00:30:12;;;;;;;23.92;22.30;;;;;;;-9.50;100.00;102502.41;5040202;28;20442;-58
2024/01/11 00:32:39;;;;;;;22.02;20.77;;;;;;;-9.47;100.00;102488.59;5039007;28;20055;-57
2024/01/11 00:35:07;;;;;;;32.13;22.58;;;;;;;-9.20;100.00;102500.00;5039645;28;20519;-62
2024/01/11 00:37:37;;;;;;;23.23;21.83;;;;;;;-9.31;100.00;102489.97;5044203;28;20049;-62
2024/01/11 00:40:05;;;;;;;25.17;23.40;;;;;;;-9.18;100.00;102495.69;5045810;28;20288;-57
2024/01/11 00:42:31;;;;;;;22.40;20.75;;;;;;;-9.29;100.00;102487.34;5042795;28;20076;-56
2024/01/11 00:44:58;;;;;;;21.42;20.23;;;;;;;-9.32;100.00;102488.28;5041770;28;20048;-62
2024/01/11 00:47:25;;;;;;;25.60;24.00;;;;;;;-9.32;100.00;102490.00;5048208;28;20494;-62
2024/01/11 00:49:53;;;;;;;27.15;24.85;;;;;;;-9.32;100.00;102488.28;5039293;28;20041;-62
2024/01/11 00:52:21;;;;;;;21.67;20.48;;;;;;;-9.44;100.00;102473.09;5039255;28;20493;-56
2024/01/11 00:54:49;;;;;;;21.80;20.40;;;;;;;-9.51;100.00;102468.97;5041858;28;20114;-62
2024/01/11 00:57:16;;;;;;;20.88;19.67;;;;;;;-9.92;100.00;102466.41;5038194;28;20514;-57
2024/01/11 00:59:43;;;;;;;19.90;18.80;;;;;;;-9.89;100.00;102467.22;5031590;28;20073;-56
2024/01/11 01:02:12;;;;;;;22.17;20.35;;;;;;;-9.91;100.00;102468.09;5039145;28;20053;-57
2024/01/11 01:04:42;;;;;;;21.23;19.60;;;;;;;-9.98;100.00;102470.84;5040236;28;20507;-62
2024/01/11 01:07:09;;;;;;;21.55;20.33;;;;;;;-9.82;100.00;102469.66;5042563;28;20445;-57
2024/01/11 01:09:36;;;;;;;25.48;23.63;;;;;;;-9.80;100.00;102469.59;5044886;28;20418;-62
2024/01/11 01:12:05;;;;;;;23.85;22.33;;;;;;;-9.85;100.00;102468.88;5045681;28;20056;-62
2024/01/11 01:14:32;;;;;;;25.08;23.38;;;;;;;-9.77;100.00;102472.97;5046436;28;20053;-56
2024/01/11 01:16:59;;;;;;;24.27;22.45;;;;;;;-9.68;100.00;102466.78;5041931;28;20049;-56
2024/01/11 01:19:26;;;;;;;25.95;23.58;;;;;;;-9.65;100.00;102453.88;5040795;28;20052;-61
2024/01/11 01:21:53;;;;;;;22.45;21.15;;;;;;;-9.98;100.00;102452.84;5047085;28;20053;-62
2024/01/11 01:24:20;;;;;;;21.75;20.65;;;;;;;-10.20;100.00;102450.69;5041507;28;20045;-57
2024/01/11 01:26:46;;;;;;;22.42;21.13;;;;;;;-9.86;100.00;102437.16;5041830;28;20048;-57
2024/01/11 01:29:15;;;;;;;21.90;20.77;;;;;;;-9.83;100.00;102438.81;5042447;28;20061;-57
2024/01/11 01:31:42;;;;;;;25.77;23.88;;;;;;;-9.76;100.00;102433.50;5045419;28;20045;-62
2024/01/11 01:34:08;;;;;;;19.75;18.73;;;;;;;-9.84;100.00;102429.41;5046417;28;20052;-62
2024/01/11 01:36:35;;;;;;;20.42;19.33;;;;;;;-9.78;100.00;102431.84;5045521;28;20065;-56
2024/01/11 01:39:03;;;;;;;22.90;21.67;;;;;;;-9.71;100.00;102429.13;5041109;28;20588;-57
2024/01/11 01:41:30;;;;;;;22.85;21.20;;;;;;;-9.69;100.00;102427.34;5044318;28;20045;-57
2024/01/11 01:43:56;;;;;;;22.75;21.52;;;;;;;-9.69;100.00;102427.34;5041692;28;20049;-62
2024/01/11 01:46:25;;;;;;;22.02;20.83;;;;;;;-9.89;100.00;102431.22;5044791;28;20053;-56
2024/01/11 01:48:54;;;;;;;22.70;21.20;;;;;;;-9.69;100.00;102424.75;5040709;28;20042;-57
2024/01/11 01:51:22;;;;;;;24.73;23.05;;;;;;;-9.68;100.00;102417.91;5043100;28;20064;-57
2024/01/11 01:53:51;;;;;;;26.05;24.60;;;;;;;-9.59;100.00;102417.72;5045072;28;20053;-62
2024/01/11 01:56:19;;;;;;;26.10;24.52;;;;;;;-9.50;100.00;102414.06;5048728;28;20059;-56
2024/01/11 01:58:46;;;;;;;23.20;22.00;;;;;;;-9.74;100.00;102418.03;5041237;28;20057;-61
2024/01/11 02:01:14;;;;;;;23.58;22.20;;;;;;;-9.40;100.00;102417.28;5038999;28;20048;-61
2024/01/11 02:03:45;;;;;;;24.30;18.65;;;;;;;-9.33;100.00;102411.09;5051073;28;20049;-62
2024/01/11 02:06:12;;;;;;;25.33;23.73;;;;;;;-9.46;100.00;102398.53;5045701;28;20060;-57
2024/01/11 02:08:41;;;;;;;22.55;21.45;;;;;;;-9.57;100.00;102395.34;5044228;28;20053;-57
2024/01/11 02:11:08;;;;;;;21.55;20.35;;;;;;;-9.54;100.00;102391.88;5047882;28;20045;-62
2024/01/11 02:13:36;;;;;;;23.13;21.75;;;;;;;-9.45;100.00;102394.22;5044757;28;20048;-62
2024/01/11 02:16:02;;;;;;;23.98;22.73;;;;;;;-9.46;100.00;102388.22;5043449;28;20046;-62
2024/01/11 02:18:29;;;;;;;25.08;23.65;;;;;;;-9.73;100.00;102383.72;5047247;28;20693;-57
2024/01/11 02:20:58;;;;;;;23.08;21.88;;;;;;;-9.70;100.00;102375.94;5043266;28;20487;-62
2024/01/11 02:23:26;;;;;;;24.67;23.20;;;;;;;-9.63;100.00;102377.47;5042915;28;20049;-57
2024/01/11 02:25:55;;;;;;;24.30;22.77;;;;;;;-9.59;100.00;102360.25;5038350;28;20049;-62
2024/01/11 02:28:21;;;;;;;22.02;20.75;;;;;;;-9.49;100.00;102362.56;5047131;28;20049;-62
2024/01/11 02:30:48;;;;;;;24.98;23.48;;;;;;;-9.50;100.00;102363.47;5050554;28;20494;-62
2024/01/11 02:33:16;;;;;;;24.77;23.25;;;;;;;-9.35;100.00;102362.22;5043517;28;20046;-62
2024/01/11 02:35:43;;;;;;;24.35;23.02;;;;;;;-9.46;100.00;102354.78;5050475;28;20048;-62
2024/01/11 02:38:10;;;;;;;27.00;25.60;;;;;;;-9.31;100.00;102358.72;5047528;28;20544;-61
2024/01/11 02:40:42;;;;;;;22.90;21.70;;;;;;;-9.38;100.00;102354.56;5047168;28;20415;-62
2024/01/11 02:43:11;;;;;;;27.80;25.92;;;;;;;-9.20;100.00;102355.00;5048368;28;20052;-61
2024/01/11 02:45:40;;;;;;;25.02;23.60;;;;;;;-9.51;100.00;102353.19;5040437;28;20075;-57
2024/01/11 02:48:07;;;;;;;23.42;22.30;;;;;;;-9.15;100.00;102348.88;5041448;28;20136;-57
2024/01/11 02:50:34;;;;;;;25.88;24.08;;;;;;;-9.31;100.00;102348.41;5038821;28;20056;-57
2024/01/11 02:53:01;;;;;;;22.25;21.13;;;;;;;-9.28;100.00;102348.34;5039082;28;20048;-57
2024/01/11 02:55:28;;;;;;;24.30;22.90;;;;;;;-9.34;100.00;102342.50;5039705;28;20512;-57
2024/01/11 02:57:55;;;;;;;21.73;20.42;;;;;;;-9.22;100.00;102337.06;5040879;28;20065;-57
2024/01/11 03:00:23;;;;;;;20.02;18.67;;;;;;;-9.26;100.00;102340.56;5038142;28;20282;-62
2024/01/11 03:02:50;;;;;;;21.00;19.80;;;;;;;-9.33;100.00;102346.75;5043372;28;20175;-56
2024/01/11 03:05:16;;;;;;;22.48;21.27;;;;;;;-9.44;100.00;102336.72;5039090;28;20516;-62
2024/01/11 03:07:43;;;;;;;21.70;20.63;;;;;;;-9.24;100.00;102339.66;5045443;28;20041;-56
2024/01/11 03:10:10;;;;;;;22.17;21.17;;;;;;;-9.31;100.00;102338.13;5039929;28;20522;-57
2024/01/11 03:12:37;;;;;;;21.38;20.33;;;;;;;-9.37;100.00;102329.72;5041260;28;20057;-62
2024/01/11 03:15:05;;;;;;;20.50;19.50;;;;;;;-9.30;100.00;102332.09;5042529;28;20452;-57
2024/01/11 03:17:33;;;;;;;19.58;18.67;;;;;;;-9.16;100.00;102325.75;5041822;28;20044;-57
2024/01/11 03:20:00;;;;;;;21.52;20.15;;;;;;;-9.30;100.00;102329.50;5043933;28;20060;-56
2024/01/11 03:22:27;;;;;;;22.25;21.15;;;;;;;-9.22;100.00;102329.31;5043479;28;20049;-57
2024/01/11 03:24:54;;;;;;;20.35;19.35;;;;;;;-9.18;100.00;102323.19;5041293;28;20049;-57
2024/01/11 03:27:21;;;;;;;21.40;20.35;;;;;;;-9.13;100.00;102312.81;5038840;28;20056;-57
2024/01/11 03:29:49;;;;;;;19.85;18.85;;;;;;;-9.31;100.00;102312.38;5038075;28;20049;-56
2024/01/11 03:32:16;;;;;;;20.13;19.13;;;;;;;-9.27;100.00;102310.56;5037364;28;20056;-57
2024/01/11 03:34:46;;;;;;;19.30;18.30;;;;;;;-9.19;100.00;102297.53;5039275;28;20052;-57
2024/01/11 03:37:13;;;;;;;19.73;18.73;;;;;;;-9.14;100.00;102300.78;5038619;28;20052;-62
2024/01/11 03:39:40;;;;;;;19.00;18.10;;;;;;;-9.49;100.00;102300.81;5043985;28;20072;-61
2024/01/11 03:42:07;;;;;;;21.23;20.23;;;;;;;-9.20;100.00;102286.34;5048820;28;20448;-62
2024/01/11 03:44:34;;;;;;;21.88;20.67;;;;;;;-9.45;100.00;102288.72;5044239;28;20041;-57
2024/01/11 03:47:01;;;;;;;20.50;19.40;;;;;;;-9.24;100.00;102288.16;5042158;28;20541;-62
2024/01/11 03:49:28;;;;;;;23.02;21.92;;;;;;;-9.30;100.00;102283.19;5044292;28;20048;-62
2024/01/11 03:51:56;;;;;;;20.73;19.63;;;;;;;-9.28;100.00;102285.72;5043705;28;20123;-62
2024/01/11 03:54:24;;;;;;;20.02;19.00;;;;;;;-9.40;100.00;102281.75;5045682;28;20052;-62
2024/01/11 03:56:54;;;;;;;19.58;18.58;;;;;;;-9.38;100.00;102279.13;5045177;28;20494;-62
2024/01/11 03:59:20;;;;;;;19.40;18.40;;;;;;;-9.22;100.00;102273.53;5048514;28;20044;-62
2024/01/11 04:01:47;;;;;;;21.88;19.95;;;;;;;-9.32;100.00;102269.53;5044474;28;20049;-62
2024/01/11 04:04:15;;;;;;;19.70;18.60;;;;;;;-9.28;100.00;102258.25;5037476;28;20049;-57
2024/01/11 04:06:41;;;;;;;20.13;19.02;;;;;;;-9.31;100.00;102252.34;5040850;28;20064;-57
2024/01/11 04:09:12;;;;;;;20.88;19.77;;;;;;;-9.21;100.00;102248.63;5046241;28;20426;-62
2024/01/11 04:11:39;;;;;;;21.13;20.02;;;;;;;-9.09;100.00;102248.31;5044052;28;20450;-62
2024/01/11 04:14:06;;;;;;;20.63;19.42;;;;;;;-8.95;100.00;102247.09;5048061;28;20152;-62
2024/01/11 04:16:33;;;;;;;22.10;20.30;;;;;;;-8.83;100.00;102244.16;5039880;28;20050;-57
2024/01/11 04:19:00;;;;;;;19.85;18.73;;;;;;;-8.81;100.00;102240.63;5043343;28;20045;-62
2024/01/11 04:21:28;;;;;;;22.52;21.00;;;;;;;-8.78;100.00;102245.69;5041393;28;20049;-56
2024/01/11 04:23:55;;;;;;;22.73;21.23;;;;;;;-8.76;100.00;102237.94;5041607;28;20518;-57
2024/01/11 04:26:23;;;;;;;20.45;19.35;;;;;;;-8.76;100.00;102232.78;5041614;28;20049;-57
2024/01/11 04:28:52;;;;;;;19.88;18.77;;;;;;;-8.84;100.00;102238.16;5037766;28;20057;-57
2024/01/11 04:31:19;;;;;;;21.23;19.45;;;;;;;-8.79;100.00;102240.59;5040337;28;20110;-62
2024/01/11 04:33:47;;;;;;;20.48;19.38;;;;;;;-8.66;100.00;102239.34;5041489;28;20049;-62
2024/01/11 04:36:14;;;;;;;20.70;19.60;;;;;;;-9.06;100.00;102229.34;5042070;28;20050;-57
2024/01/11 04:38:41;;;;;;;23.73;22.15;;;;;;;-8.83;100.00;102239.03;5038478;28;20508;-62
2024/01/11 04:41:09;;;;;;;21.23;20.02;;;;;;;-8.89;100.00;102234.88;5046944;28;20048;-57
2024/01/11 04:43:39;;;;;;;23.67;22.13;;;;;;;-8.71;100.00;102224.91;5043574;28;20119;-56
2024/01/11 04:46:14;;;;;;;20.30;19.20;;;;;;;-8.70;100.00;102227.47;5044983;28;20045;-57
2024/01/11 04:48:41;;;;;;;21.08;19.90;;;;;;;-8.75;100.00;102229.31;5043811;28;20441;-57
2024/01/11 04:51:07;;;;;;;25.67;24.38;;;;;;;-8.71;100.00;102227.50;5042779;28;20565;-57
2024/01/11 04:53:36;;;;;;;23.42;22.13;;;;;;;-8.92;100.00;102226.41;5047555;28;20056;-62
2024/01/11 04:56:03;;;;;;;27.40;25.67;;;;;;;-8.72;100.00;102224.06;5046021;28;20053;-56
2024/01/11 04:58:30;;;;;;;24.42;22.83;;;;;;;0.88;100.00;102224.53;5045707;28;20345;-58
2024/01/11 05:00:59;;;;;;;27.27;25.38;;;;;;;-5.78;100.00;102223.94;5036242;28;20238;-57
2024/01/11 05:03:26;;;;;;;25.48;23.77;;;;;;;-7.90;100.00;102218.03;5045309;28;20052;-62
2024/01/11 05:05:52;;;;;;;29.63;27.65;;;;;;;-8.37;100.00;102219.56;5038895;28;20566;-57
2024/01/11 05:08:19;;;;;;;27.08;25.58;;;;;;;-8.63;100.00;102217.81;5044864;28;20506;-62
2024/01/11 05:10:46;;;;;;;25.30;23.77;;;;;;;-8.63;100.00;102223.81;5046790;28;20064;-57
2024/01/11 05:13:13;;;;;;;26.70;25.30;;;;;;;-8.52;100.00;102222.66;5007668;28;20049;-57
2024/01/11 05:15:40;;;;;;;22.80;21.20;;;;;;;-8.56;100.00;102217.59;5043296;28;20542;-57
2024/01/11 05:18:10;;;;;;;30.88;29.10;;;;;;;-8.57;100.00;102223.63;5041063;28;20057;-61
2024/01/11 05:20:37;;;;;;;22.27;20.98;;;;;;;-8.47;100.00;102218.19;5049672;28;20438;-62
2024/01/11 05:23:04;;;;;;;22.73;21.42;;;;;;;-8.48;100.00;102227.66;5050585;28;20064;-62
2024/01/11 05:25:33;;;;;;;22.38;21.08;;;;;;;-8.46;100.00;102223.31;5046998;28;20498;-62
2024/01/11 05:28:00;;;;;;;24.95;23.25;;;;;;;-8.49;100.00;102220.81;5045360;28;20048;-57
2024/01/11 05:30:27;;;;;;;27.27;25.30;;;;;;;-8.31;100.00;102219.38;5046250;28;20052;-62
2024/01/11 05:32:54;;;;;;;24.98;23.48;;;;;;;-8.49;100.00;102225.13;5050250;28;20045;-62
2024/01/11 05:35:23;;;;;;;20.73;19.63;;;;;;;-8.28;100.00;102226.19;5050438;28;20044;-62
2024/01/11 05:37:50;;;;;;;20.50;19.30;;;;;;;-8.31;100.00;102224.53;5044214;28;20282;-57
2024/01/11 05:40:17;;;;;;;20.00;18.80;;;;;;;-8.22;100.00;102213.09;5045863;28;20560;-56
2024/01/11 05:42:44;;;;;;;22.15;20.30;;;;;;;-8.37;100.00;102212.69;5044342;28;20629;-62
2024/01/11 05:45:11;;;;;;;19.27;18.17;;;;;;;-8.44;100.00;102208.66;5048870;28;20048;-62
2024/01/11 05:47:39;;;;;;;20.85;18.63;;;;;;;-8.45;100.00;102214.66;5044730;28;20495;-62
2024/01/11 05:50:07;;;;;;;19.38;18.27;;;;;;;-8.30;100.00;102206.44;5044265;28;20447;-62
2024/01/11 05:52:35;;;;;;;20.15;18.80;;;;;;;-8.23;100.00;102211.38;5046337;28;20049;-57
2024/01/11 05:55:02;;;;;;;20.95;19.75;;;;;;;-8.38;100.00;102203.28;5040970;28;20048;-62
2024/01/11 05:57:29;;;;;;;19.92;18.67;;;;;;;-8.07;100.00;102207.44;5048423;28;20048;-62
2024/01/11 05:59:56;;;;;;;18.25;17.23;;;;;;;-8.09;100.00;102204.06;5049756;28;20544;-62
2024/01/11 06:02:23;;;;;;;18.80;17.60;;;;;;;-8.20;100.00;102200.97;5038334;28;20055;-57
2024/01/11 06:04:50;;;;;;;18.30;17.40;;;;;;;-8.29;100.00;102194.38;5046022;28;20053;-62
2024/01/11 06:07:19;;;;;;;18.70;17.70;;;;;;;-8.10;100.00;102197.25;5045331;28;20144;-62
2024/01/11 06:09:47;;;;;;;19.15;18.05;;;;;;;-7.88;100.00;102197.38;5050587;28;20057;-62
2024/01/11 06:12:14;;;;;;;17.92;16.73;;;;;;;-7.97;100.00;102192.50;5051447;28;20049;-62
2024/01/11 06:14:40;;;;;;;17.60;16.50;;;;;;;-7.95;100.00;102203.63;5051227;28;20095;-62
2024/01/11 06:17:10;;;;;;;18.50;17.50;;;;;;;-7.79;100.00;102198.81;5051529;28;20057;-62
2024/01/11 06:19:40;;;;;;;19.60;18.42;;;;;;;-8.02;100.00;102202.13;5052112;28;20049;-62
2024/01/11 06:22:06;;;;;;;19.45;18.20;;;;;;;-7.86;100.00;102203.31;5051473;28;20167;-62
2024/01/11 06:24:33;;;;;;;18.63;17.42;;;;;;;-7.69;100.00;102197.59;5051668;28;20430;-62
2024/01/11 06:27:02;;;;;;;18.25;17.30;;;;;;;-7.50;100.00;102200.38;5048161;28;20446;-57
2024/01/11 06:29:29;;;;;;;18.00;17.10;;;;;;;-7.54;100.00;102197.06;5043891;28;20056;-62
2024/01/11 06:31:56;;;;;;;18.80;17.80;;;;;;;-6.99;100.00;102194.25;5043268;28;20045;-57
2024/01/11 06:34:23;;;;;;;17.80;16.80;;;;;;;-6.28;100.00;102201.00;5040296;28;20507;-62
2024/01/11 06:36:50;;;;;;;24.38;22.63;;;;;;;-5.67;100.00;102196.75;5040874;28;20049;-62
2024/01/11 06:39:16;;;;;;;20.17;19.05;;;;;;;-5.13;100.00;102198.69;5029253;28;20046;-57
2024/01/11 06:41:43;;;;;;;21.25;20.02;;;;;;;-4.72;100.00;102198.59;5028853;28;20053;-57
2024/01/11 06:44:11;;;;;;;20.50;19.40;;;;;;;-4.57;100.00;102193.59;5030426;28;20046;-62
2024/01/11 06:46:41;;;;;;;23.20;21.13;;;;;;;-4.32;100.00;102191.53;5029870;28;20045;-58
2024/01/11 06:49:08;;;;;;;22.98;21.63;;;;;;;-4.07;100.00;102200.72;5028412;28;20511;-57
2024/01/11 06:51:36;;;;;;;24.23;22.73;;;;;;;-3.82;100.00;102201.19;5028660;28;20108;-57
2024/01/11 06:54:03;;;;;;;21.90;20.58;;;;;;;-3.73;100.00;102194.69;5028306;28;20085;-57
2024/01/11 06:56:30;;;;;;;21.85;20.55;;;;;;;-3.76;100.00;102190.47;5027787;28;20056;-57
2024/01/11 06:58:58;;;;;;;26.23;24.48;;;;;;;-3.75;100.00;102188.72;5028900;28;20049;-62
2024/01/11 07:01:26;;;;;;;25.23;23.48;;;;;;;-3.59;100.00;102194.00;5027236;28;20061;-62
2024/01/11 07:03:53;;;;;;;24.42;22.15;;;;;;;-3.95;100.00;102198.34;5028858;28;20084;-62
2024/01/11 07:06:20;;;;;;;27.30;24.60;;;;;;;-4.33;100.00;102187.22;5030242;28;20427;-62
2024/01/11 07:08:47;;;;;;;27.15;24.83;;;;;;;-4.80;100.00;102181.72;5029663;28;20491;-57
2024/01/11 07:11:14;;;;;;;26.00;24.20;;;;;;;-4.75;100.00;102182.31;5028355;28;20088;-57
2024/01/11 07:13:41;;;;;;;23.27;21.95;;;;;;;-4.35;100.00;102183.06;5027744;28;20060;-57
2024/01/11 07:16:07;;;;;;;23.55;22.15;;;;;;;-4.02;100.00;102184.00;5030562;28;20703;-62
2024/01/11 07:18:36;;;;;;;23.35;21.95;;;;;;;-4.85;100.00;102177.56;5030065;28;20084;-62
2024/01/11 07:21:03;;;;;;;22.52;21.23;;;;;;;-4.88;100.00;102176.88;5029976;28;20054;-62
2024/01/11 07:23:30;;;;;;;21.90;20.60;;;;;;;-5.33;100.00;102178.84;5030246;28;20053;-62
2024/01/11 07:25:58;;;;;;;18.65;17.45;;;;;;;-4.61;100.00;102182.53;5030542;28;20525;-62
2024/01/11 07:28:25;;;;;;;23.02;20.98;;;;;;;-5.04;100.00;102181.91;5028331;28;20057;-57
2024/01/11 07:30:53;;;;;;;22.23;20.77;;;;;;;-4.22;100.00;102179.78;5027696;28;20546;-57
2024/01/11 07:33:20;;;;;;;21.65;20.13;;;;;;;-4.05;100.00;102193.72;5027666;28;20049;-57
2024/01/11 07:35:48;;;;;;;20.98;19.67;;;;;;;-2.89;100.00;102177.28;5028831;28;20053;-62
2024/01/11 07:38:15;;;;;;;22.05;20.48;;;;;;;-2.18;100.00;102178.56;5029169;28;20053;-63
2024/01/11 07:40:42;;;;;;;23.05;21.45;;;;;;;-3.12;100.00;102175.91;5029099;28;20068;-57
2024/01/11 07:43:09;;;;;;;22.25;20.95;;;;;;;-4.29;100.00;102174.97;5027133;28;20053;-57
2024/01/11 07:45:36;;;;;;;22.33;21.02;;;;;;;-3.06;100.00;102169.56;5027751;28;20418;-57
2024/01/11 07:48:04;;;;;;;22.17;20.45;;;;;;;-1.05;100.00;102161.44;5027315;28;20060;-57
2024/01/11 07:50:32;;;;;;;23.15;21.75;;;;;;;-2.88;100.00;102172.94;5038889;28;20430;-57
2024/01/11 07:53:01;;;;;;;22.30;21.10;;;;;;;-2.04;100.00;102165.63;5046624;28;20041;-57
2024/01/11 07:55:27;;;;;;;23.50;22.00;;;;;;;-1.77;100.00;102157.97;5033638;28;20313;-57
2024/01/11 07:57:54;;;;;;;22.85;21.10;;;;;;;-1.81;100.00;102151.25;5036233;28;20048;-57
2024/01/11 08:00:22;;;;;;;21.80;20.60;;;;;;;-1.33;100.00;102148.38;5034976;28;20048;-57
2024/01/11 08:02:48;;;;;;;23.92;22.63;;;;;;;-3.18;100.00;102137.25;5033740;28;20037;-62
2024/01/11 08:05:16;;;;;;;25.40;23.67;;;;;;;-1.23;100.00;102139.09;5041132;28;20106;-62
2024/01/11 08:07:43;;;;;;;24.15;22.55;;;;;;;-0.13;100.00;102133.81;5044341;28;20049;-62
2024/01/11 08:10:14;;;;;;;24.30;22.80;;;;;;;0.88;100.00;102129.53;5042332;28;20538;-63
2024/01/11 08:12:40;;;;;;;26.67;24.98;;;;;;;0.48;100.00;102121.81;5044470;28;20309;-62
2024/01/11 08:15:10;;;;;;;24.60;22.98;;;;;;;-0.02;100.00;102126.94;5042541;28;20051;-57
2024/01/11 08:17:37;;;;;;;23.33;21.63;;;;;;;1.48;100.00;102125.22;5037764;28;20119;-57
2024/01/11 08:20:07;;;;;;;24.50;22.80;;;;;;;-0.24;100.00;102129.31;5041354;28;20052;-62
2024/01/11 08:22:36;;;;;;;23.95;22.35;;;;;;;-0.03;100.00;102121.81;5044430;28;20126;-62
2024/01/11 08:25:04;;;;;;;25.35;23.55;;;;;;;1.22;100.00;102116.66;5042439;28;20057;-62
2024/01/11 08:27:32;;;;;;;25.63;24.02;;;;;;;2.31;100.00;102117.25;5036744;28;20458;-62
2024/01/11 08:30:00;;;;;;;24.98;23.40;;;;;;;-0.07;100.00;102113.34;5042776;28;20053;-57
2024/01/11 08:32:26;;;;;;;23.45;21.88;;;;;;;-1.34;100.00;102110.22;5010638;28;20045;-57
2024/01/11 08:34:54;;;;;;;25.65;23.95;;;;;;;-1.03;100.00;102116.97;5037334;28;20049;-57
2024/01/11 08:37:20;;;;;;;28.25;26.55;;;;;;;0.72;100.00;102106.19;5039721;28;20048;-62
2024/01/11 08:39:48;;;;;;;26.20;23.75;;;;;;;0.67;100.00;102101.31;5038945;28;20059;-57
2024/01/11 08:42:15;;;;;;;24.70;23.25;;;;;;;-0.58;100.00;102105.38;5040279;28;20438;-58
2024/01/11 08:44:44;;;;;;;27.42;25.63;;;;;;;-1.34;100.00;102105.03;5041740;28;20045;-62
2024/01/11 08:47:11;;;;;;;27.08;25.48;;;;;;;-0.06;100.00;102086.28;5035305;28;20060;-62
2024/01/11 08:49:39;;;;;;;24.83;23.33;;;;;;;-0.31;100.00;102094.91;5037151;28;20558;-62
2024/01/11 08:52:06;;;;;;;24.25;22.85;;;;;;;-0.34;100.00;102083.84;5038566;28;20715;-62
2024/01/11 08:54:34;;;;;;;25.10;23.60;;;;;;;0.11;100.00;102092.16;5040195;28;20048;-63
2024/01/11 08:57:02;;;;;;;23.35;21.85;;;;;;;-0.07;100.00;102086.38;5038753;28;20045;-58
2024/01/11 08:59:29;;;;;;;26.25;24.55;;;;;;;1.02;100.00;102081.44;5041842;28;20090;-63
2024/01/11 09:01:57;;;;;;;24.85;23.35;;;;;;;-1.96;100.00;102072.28;5038592;28;20049;-62
2024/01/11 09:04:24;;;;;;;22.73;21.30;;;;;;;-0.96;100.00;102080.00;5042237;28;20427;-63
2024/01/11 09:06:50;;;;;;;23.27;21.67;;;;;;;-0.44;100.00;102072.34;5045010;28;20063;-63
2024/01/11 09:09:17;;;;;;;25.38;23.63;;;;;;;-0.18;100.00;102068.84;5041050;28;20501;-58
2024/01/11 09:11:44;;;;;;;24.58;22.98;;;;;;;-0.48;100.00;102064.72;5039273;28;20063;-57
2024/01/11 09:14:12;;;;;;;26.27;24.63;;;;;;;1.50;100.00;102052.63;5043170;28;20055;-63
2024/01/11 09:16:42;;;;;;;22.88;21.40;;;;;;;0.71;100.00;102048.78;5044874;28;20061;-58
2024/01/11 09:19:10;;;;;;;22.00;20.70;;;;;;;0.81;100.00;102048.00;5044393;28;20049;-63
2024/01/11 09:21:37;;;;;;;22.85;21.45;;;;;;;0.28;100.00;102036.94;5042962;28;20060;-58
2024/01/11 09:24:05;;;;;;;22.70;21.30;;;;;;;1.12;100.00;102036.19;5043120;28;20575;-58
2024/01/11 09:26:31;;;;;;;21.48;20.17;;;;;;;1.95;100.00;102026.53;5044578;28;20053;-63
2024/01/11 09:28:58;;;;;;;21.75;20.25;;;;;;;2.06;100.00;102013.44;5045780;28;20049;-63
2024/01/11 09:31:25;;;;;;;22.05;20.45;;;;;;;1.14;100.00;102008.09;5046726;28;20053;-58
2024/01/11 09:33:52;;;;;;;23.92;22.23;;;;;;;2.15;100.00;102006.63;5046218;28;20052;-58
2024/01/11 09:36:20;;;;;;;25.13;23.00;;;;;;;1.68;100.00;102001.47;5046851;28;20469;-58
2024/01/11 09:38:48;;;;;;;24.00;21.70;;;;;;;2.36;100.00;102004.97;5046946;28;20044;-58
2024/01/11 09:41:16;;;;;;;26.77;22.10;;;;;;;1.45;100.00;101987.50;5046418;28;20753;-63
2024/01/11 09:43:43;;;;;;;22.30;20.70;;;;;;;1.78;100.00;101978.84;5046864;28;20051;-58
2024/01/11 09:46:12;;;;;;;23.73;22.02;;;;;;;0.91;100.00;101967.94;5045323;28;20045;-58
2024/01/11 09:48:41;;;;;;;28.17;26.10;;;;;;;2.18;100.00;101974.94;5047355;28;20049;-58
2024/01/11 09:51:11;;;;;;;24.90;23.20;;;;;;;2.52;100.00;101978.34;5042866;28;20045;-63
2024/01/11 09:53:40;;;;;;;22.95;21.45;;;;;;;2.12;100.00;101972.78;5003939;28;20246;-63
2024/01/11 09:56:10;;;;;;;25.42;23.63;;;;;;;2.20;100.00;101976.47;5039950;28;20568;-58
2024/01/11 09:58:37;;;;;;;26.45;24.55;;;;;;;1.69;100.00;101974.31;5042583;28;20052;-63
2024/01/11 10:01:08;;;;;;;26.63;24.35;;;;;;;3.18;100.00;101967.75;5039585;28;20099;-58
2024/01/11 10:03:35;;;;;;;24.70;23.00;;;;;;;0.37;100.00;101963.13;5039253;28;20059;-63
2024/01/11 10:06:04;;;;;;;26.02;24.33;;;;;;;1.83;100.00;101963.63;5041642;28;20044;-58
2024/01/11 10:08:32;;;;;;;24.88;23.17;;;;;;;1.47;100.00;101945.50;5045816;28;20542;-63
2024/01/11 10:11:00;;;;;;;24.55;22.75;;;;;;;0.31;100.00;101939.22;5040887;28;20507;-63
2024/01/11 10:13:29;;;;;;;22.67;21.08;;;;;;;1.41;100.00;101930.25;5043517;28;20049;-63
2024/01/11 10:16:07;;;;;;;24.25;22.50;;;;;;;3.98;100.00;101924.19;5046535;28;20048;-63
2024/01/11 10:18:34;;;;;;;24.85;23.05;;;;;;;1.14;100.00;101918.28;5042948;28;20501;-63
2024/01/11 10:21:01;;;;;;;26.83;24.73;;;;;;;2.09;100.00;101918.00;5041564;28;20462;-63
2024/01/11 10:23:29;;;;;;;24.77;22.98;;;;;;;4.12;100.00;101910.69;5042270;28;20049;-63
2024/01/11 10:25:57;;;;;;;27.10;25.05;;;;;;;1.71;100.00;101913.97;5044750;28;20106;-63
2024/01/11 10:28:26;;;;;;;26.63;24.73;;;;;;;2.01;100.00;101908.13;5041303;28;20041;-63
2024/01/11 10:30:54;;;;;;;27.85;25.85;;;;;;;3.65;100.00;101905.13;5044247;28;20214;-59
2024/01/11 10:33:21;;;;;;;25.83;23.95;;;;;;;2.10;100.00;101901.31;5040145;28;20045;-58
2024/01/11 10:35:49;;;;;;;23.45;21.75;;;;;;;3.06;100.00;101892.66;5042150;28;20044;-58
2024/01/11 10:38:17;;;;;;;26.85;24.85;;;;;;;5.56;100.00;101894.97;5043982;28;20048;-58
2024/01/11 10:40:45;;;;;;;27.58;25.48;;;;;;;3.43;100.00;101880.69;5042280;28;20049;-63
2024/01/11 10:43:13;;;;;;;27.42;25.42;;;;;;;3.03;100.00;101877.97;5040409;28;20045;-58
2024/01/11 10:45:47;;;;;;;23.63;21.92;;;;;;;2.11;100.00;101874.16;5038744;28;20136;-58
2024/01/11 10:48:16;;;;;;;26.30;24.60;;;;;;;3.17;100.00;101864.50;5039827;28;20045;-58
2024/01/11 10:50:45;;;;;;;25.38;23.75;;;;;;;2.46;100.00;101856.41;5041173;28;20053;-58
2024/01/11 10:53:25;;;;;;;25.08;23.42;;;;;;;3.64;100.00;101851.75;5044340;28;20044;-58
2024/01/11 10:55:52;;;;;;;23.60;22.00;;;;;;;3.99;100.00;101849.63;5041474;28;20056;-58
2024/01/11 10:58:20;;;;;;;24.85;23.05;;;;;;;4.14;100.00;101845.63;5041969;28;20049;-58
2024/01/11 11:00:50;;;;;;;24.70;22.90;;;;;;;4.79;100.00;101838.03;5043101;28;20520;-59
2024/01/11 11:03:20;;;;;;;25.40;23.50;;;;;;;1.21;100.00;101838.38;5031576;28;20415;-58